Time;durP1;ratioP1;P1;durP2;ratioP2;P2;SDS_P1;SDS_P2;PMS_P1;PMS_P2;Temp;Humidity;BMP_temperature;BMP_pressure;BME280_temperature;BME280_humidity;BME280_pressure;Samples;Min_cycle;Max_cycle;Signal;HPM_P1;HPM_P2
2023/07/14 00:01:34;;;;;;;7.10;2.50;;;18.80;16.30;;;;;;5026204;28;20554;-66
2023/07/14 00:04:01;;;;;;;7.10;2.83;;;18.80;16.50;;;;;;5027031;28;20485;-68
2023/07/14 00:06:28;;;;;;;6.50;2.73;;;18.80;17.10;;;;;;5036603;28;20481;-66
2023/07/14 00:08:55;;;;;;;6.40;3.00;;;18.80;17.50;;;;;;5035024;28;20457;-66
2023/07/14 00:11:24;;;;;;;6.73;2.73;;;18.70;17.80;;;;;;5023818;28;20471;-66
2023/07/14 00:13:53;;;;;;;7.97;2.90;;;18.70;17.80;;;;;;5027072;28;21087;-66
2023/07/14 00:16:23;;;;;;;6.93;3.17;;;18.70;17.50;;;;;;5030744;28;20481;-66
2023/07/14 00:18:50;;;;;;;7.93;3.10;;;18.70;17.20;;;;;;5036592;28;20551;-66
2023/07/14 00:21:21;;;;;;;5.80;2.73;;;18.60;16.70;;;;;;5028763;28;20463;-66
2023/07/14 00:23:48;;;;;;;6.30;2.90;;;18.60;16.50;;;;;;5030250;28;20485;-65
2023/07/14 00:26:16;;;;;;;7.83;2.97;;;18.50;16.50;;;;;;5032644;28;20454;-68
2023/07/14 00:28:44;;;;;;;6.27;2.67;;;18.50;17.00;;;;;;5026660;28;20463;-67
2023/07/14 00:31:14;;;;;;;8.90;3.23;;;18.40;17.50;;;;;;5025628;28;20888;-66
2023/07/14 00:33:42;;;;;;;8.70;2.83;;;18.40;18.50;;;;;;5026971;28;20512;-65
2023/07/14 00:36:09;;;;;;;6.40;2.80;;;18.30;18.80;;;;;;5027574;28;20459;-66
2023/07/14 00:38:36;;;;;;;6.47;3.13;;;18.30;18.70;;;;;;5027819;28;21058;-66
2023/07/14 00:41:03;;;;;;;6.37;2.90;;;18.20;18.30;;;;;;5036452;28;20473;-65
2023/07/14 00:43:31;;;;;;;6.93;3.50;;;18.20;18.50;;;;;;5025461;28;20510;-66
2023/07/14 00:45:58;;;;;;;6.60;2.90;;;18.20;18.80;;;;;;5032873;28;20469;-65
2023/07/14 00:48:28;;;;;;;8.23;3.10;;;18.10;18.90;;;;;;5025878;28;20828;-65
2023/07/14 00:51:00;;;;;;;5.77;2.57;;;18.10;18.70;;;;;;5030099;28;20458;-66
2023/07/14 00:53:31;;;;;;;5.70;2.70;;;18.10;18.70;;;;;;5031063;28;21042;-66
2023/07/14 00:56:18;;;;;;;5.87;3.20;;;18.00;18.60;;;;;;5032831;28;20458;-67
2023/07/14 00:58:49;;;;;;;7.40;3.43;;;18.00;18.40;;;;;;5029829;28;20479;-65
2023/07/14 01:01:21;;;;;;;6.17;2.63;;;18.00;18.40;;;;;;5031192;28;20474;-65
2023/07/14 01:03:50;;;;;;;6.50;2.70;;;18.00;18.40;;;;;;5031938;28;20488;-68
2023/07/14 01:06:21;;;;;;;7.50;3.37;;;17.90;18.60;;;;;;5029870;28;20458;-65
2023/07/14 01:08:53;;;;;;;5.93;2.70;;;17.80;18.80;;;;;;5028171;28;20911;-65
2023/07/14 01:11:23;;;;;;;10.67;2.90;;;17.70;19.20;;;;;;5031086;28;20550;-66
2023/07/14 01:13:50;;;;;;;9.20;3.00;;;17.70;19.20;;;;;;5030233;28;20841;-67
2023/07/14 01:16:18;;;;;;;6.03;2.97;;;17.70;19.20;;;;;;5031729;28;20455;-67
2023/07/14 01:18:47;;;;;;;6.60;2.60;;;17.60;19.50;;;;;;5031231;28;21023;-67
2023/07/14 01:21:16;;;;;;;6.87;3.20;;;17.60;20.00;;;;;;5032767;28;20466;-67
2023/07/14 01:23:56;;;;;;;7.07;3.40;;;17.50;20.80;;;;;;5028106;28;20830;-66
2023/07/14 01:26:45;;;;;;;9.03;3.30;;;17.40;21.20;;;;;;5032708;28;20468;-66
2023/07/14 01:29:11;;;;;;;5.73;3.10;;;17.40;21.20;;;;;;5025507;28;20456;-66
2023/07/14 01:31:38;;;;;;;7.83;3.57;;;17.40;20.70;;;;;;5028700;28;20479;-65
2023/07/14 01:34:05;;;;;;;8.23;3.53;;;17.30;20.70;;;;;;5027462;28;20494;-66
2023/07/14 01:36:33;;;;;;;8.17;3.47;;;17.30;20.70;;;;;;5024031;28;20960;-66
2023/07/14 01:39:00;;;;;;;9.80;3.93;;;17.30;21.00;;;;;;5029330;28;20485;-66
2023/07/14 01:41:27;;;;;;;8.73;3.40;;;17.30;21.10;;;;;;5029350;28;20459;-66
2023/07/14 01:44:05;;;;;;;7.90;3.40;;;17.30;21.40;;;;;;5028096;28;20521;-65
2023/07/14 01:46:32;;;;;;;7.80;3.80;;;17.20;21.30;;;;;;5029776;28;20462;-67
2023/07/14 01:49:10;;;;;;;8.43;3.80;;;17.20;21.10;;;;;;5028509;28;20838;-66
2023/07/14 01:51:43;;;;;;;8.17;3.90;;;17.20;21.40;;;;;;5030366;28;20813;-65
2023/07/14 01:54:18;;;;;;;8.00;4.20;;;17.20;22.00;;;;;;5030202;28;20841;-65
2023/07/14 01:56:45;;;;;;;5.90;3.50;;;17.20;22.70;;;;;;5029053;28;20454;-65
2023/07/14 01:59:16;;;;;;;10.33;4.43;;;17.20;23.00;;;;;;5032818;28;20486;-65
2023/07/14 02:01:44;;;;;;;6.80;3.80;;;17.20;23.00;;;;;;5030643;28;20486;-65
2023/07/14 02:04:19;;;;;;;7.20;3.80;;;17.10;23.00;;;;;;5028077;28;20510;-65
2023/07/14 02:06:45;;;;;;;9.23;4.07;;;17.00;23.60;;;;;;5030132;28;20461;-65
2023/07/14 02:09:17;;;;;;;8.77;3.53;;;17.00;24.10;;;;;;5034009;28;20466;-65
2023/07/14 02:11:47;;;;;;;11.23;3.93;;;16.90;24.30;;;;;;5028965;28;20521;-66
2023/07/14 02:14:19;;;;;;;8.57;4.03;;;16.90;24.40;;;;;;5028538;28;20974;-65
2023/07/14 02:16:47;;;;;;;7.27;4.20;;;16.90;24.40;;;;;;5028198;28;20463;-67
2023/07/14 02:19:18;;;;;;;8.30;4.30;;;16.90;24.70;;;;;;5028868;28;20483;-65
2023/07/14 02:21:46;;;;;;;7.20;3.73;;;16.90;24.90;;;;;;5029746;28;20463;-65
2023/07/14 02:24:17;;;;;;;8.67;3.80;;;16.80;24.50;;;;;;5032628;28;20478;-66
2023/07/14 02:26:45;;;;;;;9.57;4.13;;;16.80;24.90;;;;;;5033238;28;20467;-66
2023/07/14 02:29:12;;;;;;;7.87;4.60;;;16.80;25.40;;;;;;5029317;28;20470;-66
2023/07/14 02:31:45;;;;;;;7.43;4.17;;;16.80;25.80;;;;;;5028798;28;20487;-66
2023/07/14 02:34:13;;;;;;;7.10;3.97;;;16.70;26.60;;;;;;5045883;22;20531;-69
2023/07/14 02:36:43;;;;;;;8.03;3.73;;;16.70;26.80;;;;;;5038291;28;20484;-69
2023/07/14 02:39:10;;;;;;;6.43;3.93;;;16.70;27.10;;;;;;5038393;28;20489;-69
2023/07/14 02:41:40;;;;;;;7.50;3.47;;;16.60;27.40;;;;;;5043525;28;20977;-69
2023/07/14 02:44:10;;;;;;;7.50;3.30;;;16.60;27.60;;;;;;5035594;28;20482;-69
2023/07/14 02:46:43;;;;;;;8.67;4.27;;;16.60;28.10;;;;;;5026366;28;20463;-69
2023/07/14 02:49:10;;;;;;;7.13;3.67;;;16.60;28.80;;;;;;5026103;28;20956;-69
2023/07/14 02:51:37;;;;;;;8.37;3.87;;;16.60;29.10;;;;;;5030068;28;20470;-69
2023/07/14 02:54:04;;;;;;;7.93;4.10;;;16.50;29.30;;;;;;5029696;28;20523;-69
2023/07/14 02:56:31;;;;;;;9.23;4.23;;;16.50;29.60;;;;;;5030187;28;20463;-69
2023/07/14 02:58:57;;;;;;;9.27;4.40;;;16.40;29.50;;;;;;5029779;28;20904;-69
2023/07/14 03:01:25;;;;;;;10.53;4.90;;;16.40;29.40;;;;;;5027203;28;21007;-69
2023/07/14 03:03:53;;;;;;;11.83;5.00;;;16.30;29.40;;;;;;5026131;28;20495;-69
2023/07/14 03:06:22;;;;;;;8.70;5.33;;;16.30;29.20;;;;;;5028415;28;20471;-68
2023/07/14 03:08:49;;;;;;;8.13;4.73;;;16.30;29.40;;;;;;5028879;28;21164;-68
2023/07/14 03:11:17;;;;;;;7.30;4.83;;;16.30;29.40;;;;;;5029383;28;20541;-68
2023/07/14 03:13:46;;;;;;;9.57;4.43;;;16.30;29.50;;;;;;5027819;28;20478;-68
2023/07/14 03:16:13;;;;;;;9.00;5.43;;;16.30;29.70;;;;;;5027680;28;20509;-68
2023/07/14 03:18:39;;;;;;;8.43;4.90;;;16.20;29.80;;;;;;5028579;28;20483;-68
2023/07/14 03:21:07;;;;;;;7.30;4.33;;;16.20;29.80;;;;;;5027867;28;20570;-69
2023/07/14 03:23:35;;;;;;;6.63;4.27;;;16.20;29.80;;;;;;5027973;28;20478;-69
2023/07/14 03:26:03;;;;;;;9.30;4.23;;;16.20;29.90;;;;;;5026247;28;20553;-69
2023/07/14 03:28:30;;;;;;;11.50;4.53;;;16.10;30.10;;;;;;5024353;28;20469;-69
2023/07/14 03:30:57;;;;;;;13.60;5.03;;;16.10;30.40;;;;;;5026466;28;20494;-69
2023/07/14 03:33:24;;;;;;;7.97;4.00;;;16.10;30.40;;;;;;5026979;28;20486;-69
2023/07/14 03:35:51;;;;;;;11.77;4.43;;;16.10;30.20;;;;;;5026847;28;20992;-69
2023/07/14 03:38:20;;;;;;;13.43;4.83;;;16.00;29.90;;;;;;5026569;28;20489;-70
2023/07/14 03:40:46;;;;;;;17.23;5.10;;;16.00;29.70;;;;;;5027331;28;20490;-71
2023/07/14 03:43:13;;;;;;;10.77;4.80;;;16.00;30.10;;;;;;5024889;28;20478;-71
2023/07/14 03:45:40;;;;;;;14.90;5.30;;;15.90;30.40;;;;;;5026673;28;20470;-70
2023/07/14 03:48:07;;;;;;;8.80;5.30;;;15.90;30.80;;;;;;5025613;28;20469;-69
2023/07/14 03:50:35;;;;;;;10.60;5.30;;;15.90;31.20;;;;;;5024570;28;20877;-72
2023/07/14 03:53:01;;;;;;;8.87;4.60;;;15.90;31.30;;;;;;5027003;28;20463;-71
2023/07/14 03:55:32;;;;;;;10.03;4.97;;;16.00;31.60;;;;;;5027922;28;20462;-72
2023/07/14 03:57:59;;;;;;;9.60;5.40;;;15.90;32.00;;;;;;5024960;28;20456;-71
2023/07/14 04:00:26;;;;;;;11.10;6.67;;;16.00;32.50;;;;;;5025901;28;20834;-71
2023/07/14 04:02:52;;;;;;;8.67;5.00;;;16.00;32.60;;;;;;5024575;28;20461;-71
2023/07/14 04:05:19;;;;;;;10.30;5.33;;;16.00;33.00;;;;;;5028036;28;21089;-71
2023/07/14 04:07:46;;;;;;;8.63;5.30;;;16.10;33.20;;;;;;5027167;28;20467;-71
2023/07/14 04:10:13;;;;;;;10.50;5.80;;;16.10;33.30;;;;;;5028380;28;20463;-71
2023/07/14 04:12:41;;;;;;;7.37;4.33;;;16.10;33.40;;;;;;5023410;28;20455;-71
2023/07/14 04:15:08;;;;;;;10.13;5.07;;;16.20;33.50;;;;;;5022098;28;20491;-71
2023/07/14 04:17:35;;;;;;;8.63;4.60;;;16.20;33.60;;;;;;5019677;28;20966;-71
2023/07/14 04:20:02;;;;;;;8.90;5.00;;;16.30;33.90;;;;;;5020915;28;20486;-70
2023/07/14 04:22:28;;;;;;;8.10;5.10;;;16.30;34.00;;;;;;5024936;28;20578;-70
2023/07/14 04:24:55;;;;;;;9.03;4.63;;;16.40;33.40;;;;;;5024501;28;20490;-70
2023/07/14 04:27:22;;;;;;;6.70;3.67;;;16.50;33.20;;;;;;5018737;28;20988;-70
2023/07/14 04:29:50;;;;;;;7.33;4.40;;;16.60;32.70;;;;;;5024228;28;20489;-68
2023/07/14 04:32:17;;;;;;;10.10;4.57;;;16.70;32.20;;;;;;5019634;28;20490;-68
2023/07/14 04:34:43;;;;;;;12.13;4.80;;;16.70;32.00;;;;;;4938618;28;2457744;-68
2023/07/14 04:37:10;;;;;;;8.33;4.40;;;17.10;32.10;;;;;;5024831;28;20196;-67
2023/07/14 04:39:37;;;;;;;6.53;4.10;;;17.70;30.80;;;;;;5024271;28;20494;-68
2023/07/14 04:42:05;;;;;;;6.83;3.50;;;18.30;28.70;;;;;;5024562;28;20546;-68
2023/07/14 04:44:33;;;;;;;6.80;3.33;;;18.70;26.90;;;;;;5024675;28;20490;-68
2023/07/14 04:47:01;;;;;;;10.30;4.00;;;19.20;25.50;;;;;;5023480;28;20467;-68
2023/07/14 04:49:28;;;;;;;7.80;3.30;;;19.70;23.10;;;;;;5024403;28;20525;-67
2023/07/14 04:51:55;;;;;;;8.43;3.33;;;20.20;21.20;;;;;;5019337;28;20470;-67
2023/07/14 04:54:23;;;;;;;7.80;3.30;;;20.10;20.40;;;;;;5024607;28;20478;-68
2023/07/14 04:56:51;;;;;;;8.20;4.30;;;19.80;20.70;;;;;;5025121;28;20474;-68
2023/07/14 04:59:18;;;;;;;10.13;4.33;;;19.70;21.50;;;;;;5023587;28;21155;-68
2023/07/14 05:01:45;;;;;;;10.97;3.87;;;20.30;20.60;;;;;;5026374;28;21078;-68
2023/07/14 05:04:13;;;;;;;6.90;3.20;;;21.30;18.50;;;;;;5024461;28;20498;-68
2023/07/14 05:06:40;;;;;;;5.57;3.43;;;22.30;16.00;;;;;;5024223;28;20492;-68
2023/07/14 05:09:07;;;;;;;9.67;3.50;;;23.20;13.70;;;;;;5026480;28;20839;-68
2023/07/14 05:11:34;;;;;;;7.33;3.30;;;24.00;11.80;;;;;;5024581;28;21346;-69
2023/07/14 05:14:03;;;;;;;6.27;3.00;;;24.50;10.20;;;;;;5020018;28;20482;-69
2023/07/14 05:16:31;;;;;;;10.63;4.10;;;25.10;9.10;;;;;;5022367;28;20959;-68
2023/07/14 05:18:58;;;;;;;7.30;3.80;;;25.80;7.20;;;;;;5019012;28;20889;-69
2023/07/14 05:21:26;;;;;;;11.10;4.67;;;26.50;6.00;;;;;;5023101;28;20505;-68
2023/07/14 05:23:52;;;;;;;7.37;3.50;;;27.00;4.90;;;;;;5019222;28;20498;-71
2023/07/14 05:26:19;;;;;;;6.73;3.30;;;27.60;3.50;;;;;;5027155;28;20459;-71
2023/07/14 05:28:46;;;;;;;8.00;3.50;;;28.00;3.50;;;;;;5014597;28;21593;-70
2023/07/14 05:31:13;;;;;;;7.83;3.23;;;28.40;1.90;;;;;;5020730;28;20483;-68
2023/07/14 05:33:40;;;;;;;8.20;3.53;;;28.60;1.00;;;;;;5022851;28;20483;-69
2023/07/14 05:36:07;;;;;;;6.67;4.40;;;28.50;1.20;;;;;;5022763;28;20475;-69
2023/07/14 05:38:36;;;;;;;9.10;3.90;;;28.60;1.00;;;;;;5025068;28;20471;-68
2023/07/14 05:41:04;;;;;;;10.93;4.30;;;29.00;1.00;;;;;;5021970;28;20688;-69
2023/07/14 05:43:31;;;;;;;8.03;4.17;;;29.50;1.00;;;;;;5025381;28;20876;-72
2023/07/14 05:45:58;;;;;;;6.93;3.70;;;30.10;1.00;;;;;;5024999;28;20959;-68
2023/07/14 05:48:25;;;;;;;8.43;4.00;;;30.30;1.00;;;;;;5028439;28;20456;-67
2023/07/14 05:50:52;;;;;;;10.07;4.30;;;30.10;1.00;;;;;;5028731;28;20451;-67
2023/07/14 05:53:19;;;;;;;8.93;4.07;;;30.60;1.00;;;;;;5025386;28;20487;-67
2023/07/14 05:55:48;;;;;;;14.23;4.53;;;30.70;1.00;;;;;;5024505;28;20463;-67
2023/07/14 05:58:15;;;;;;;11.07;4.60;;;30.10;1.00;;;;;;5026274;28;20459;-67
2023/07/14 06:00:42;;;;;;;8.20;4.47;;;29.90;1.00;;;;;;5026583;28;20478;-67
2023/07/14 06:03:16;;;;;;;8.10;4.03;;;30.00;1.00;;;;;;5027639;28;20478;-67
2023/07/14 06:05:42;;;;;;;7.80;3.70;;;30.10;1.00;;;;;;5024712;28;20470;-67
2023/07/14 06:08:09;;;;;;;9.23;4.57;;;30.60;1.00;;;;;;5027775;28;20489;-67
2023/07/14 06:10:36;;;;;;;10.70;3.77;;;31.20;1.00;;;;;;5027635;28;20471;-67
2023/07/14 06:13:04;;;;;;;7.60;3.80;;;31.80;1.00;;;;;;5023103;28;20489;-67
2023/07/14 06:15:31;;;;;;;8.17;3.83;;;32.60;1.00;;;;;;5027596;28;20462;-67
2023/07/14 06:17:58;;;;;;;7.50;3.90;;;34.00;1.00;;;;;;5028028;28;20462;-67
2023/07/14 06:20:25;;;;;;;8.27;3.80;;;35.70;1.00;;;;;;5021915;28;20479;-67
2023/07/14 06:22:52;;;;;;;7.07;3.70;;;37.00;1.00;;;;;;5025966;28;20455;-67
2023/07/14 06:25:18;;;;;;;10.50;4.00;;;38.00;1.00;;;;;;5023082;28;20468;-66
2023/07/14 06:27:45;;;;;;;9.13;3.53;;;39.50;1.00;;;;;;5026176;28;20554;-67
2023/07/14 06:30:14;;;;;;;7.67;3.47;;;39.90;1.00;;;;;;5025710;28;20494;-67
2023/07/14 06:32:43;;;;;;;8.17;4.10;;;39.50;1.00;;;;;;5023588;28;20490;-66
2023/07/14 06:35:11;;;;;;;7.17;3.33;;;39.30;1.00;;;;;;5026587;28;20489;-67
2023/07/14 06:37:38;;;;;;;9.20;3.10;;;39.00;1.00;;;;;;5024569;28;20595;-68
2023/07/14 06:40:07;;;;;;;9.60;3.70;;;39.10;1.00;;;;;;5025520;28;20490;-68
2023/07/14 06:42:35;;;;;;;9.60;3.50;;;39.50;1.00;;;;;;5026554;28;20513;-68
2023/07/14 06:45:03;;;;;;;8.00;3.70;;;39.70;1.00;;;;;;5023213;28;21201;-67
2023/07/14 06:47:32;;;;;;;7.17;3.00;;;40.30;1.00;;;;;;5024164;28;20467;-68
2023/07/14 06:49:59;;;;;;;10.03;3.50;;;41.70;1.00;;;;;;5022890;28;20459;-69
2023/07/14 06:52:25;;;;;;;6.60;3.17;;;42.80;1.00;;;;;;5024847;28;20865;-69
2023/07/14 06:54:53;;;;;;;5.60;2.70;;;43.90;1.00;;;;;;5024983;28;20486;-70
2023/07/14 06:57:19;;;;;;;7.97;2.90;;;45.20;1.00;;;;;;5022424;28;20459;-71
2023/07/14 06:59:46;;;;;;;8.67;2.90;;;46.00;1.00;;;;;;5025885;28;20467;-69
2023/07/14 07:02:13;;;;;;;6.23;2.90;;;46.10;1.00;;;;;;5021518;28;20966;-70
2023/07/14 07:04:41;;;;;;;7.70;3.23;;;46.20;1.00;;;;;;5016912;28;20486;-69
2023/07/14 07:07:08;;;;;;;6.47;3.30;;;46.80;1.00;;;;;;5019098;28;20562;-69
2023/07/14 07:09:35;;;;;;;8.60;2.70;;;47.60;1.00;;;;;;5022774;28;20843;-69
2023/07/14 07:12:03;;;;;;;6.23;2.50;;;48.10;1.00;;;;;;5026064;28;20466;-67
2023/07/14 07:14:29;;;;;;;6.40;3.13;;;48.40;1.00;;;;;;5026551;28;20576;-67
2023/07/14 07:16:57;;;;;;;5.63;2.70;;;48.70;1.00;;;;;;5027015;28;20471;-69
2023/07/14 07:19:23;;;;;;;7.17;2.93;;;49.00;1.00;;;;;;5025539;28;20843;-69
2023/07/14 07:21:51;;;;;;;4.70;2.77;;;49.50;1.00;;;;;;5028752;28;20483;-69
2023/07/14 07:24:18;;;;;;;9.30;3.20;;;49.00;1.00;;;;;;5023502;28;20486;-69
2023/07/14 07:26:45;;;;;;;5.40;2.70;;;47.70;1.00;;;;;;5024867;28;20849;-69
2023/07/14 07:29:11;;;;;;;5.47;2.87;;;45.70;1.00;;;;;;5026277;28;20463;-68
2023/07/14 07:31:38;;;;;;;6.00;2.73;;;44.40;1.00;;;;;;5025132;28;20467;-68
2023/07/14 07:34:05;;;;;;;7.67;2.80;;;42.20;1.00;;;;;;5026765;28;20523;-69
2023/07/14 07:36:32;;;;;;;6.00;2.43;;;41.00;1.00;;;;;;5025149;28;20474;-68
2023/07/14 07:39:00;;;;;;;6.83;2.40;;;40.50;1.00;;;;;;5023799;28;20498;-70
2023/07/14 07:41:27;;;;;;;5.57;2.47;;;41.20;1.00;;;;;;5024519;28;20502;-72
2023/07/14 07:43:55;;;;;;;5.70;2.30;;;42.70;1.00;;;;;;5024169;28;20490;-72
2023/07/14 07:46:22;;;;;;;5.47;2.20;;;44.30;1.00;;;;;;5024070;28;20474;-73
2023/07/14 07:48:49;;;;;;;5.47;2.10;;;45.00;1.00;;;;;;5026125;28;20521;-72
2023/07/14 07:51:16;;;;;;;7.10;2.03;;;45.00;1.00;;;;;;5020474;28;20466;-68
2023/07/14 07:53:43;;;;;;;6.87;2.20;;;45.10;1.00;;;;;;5019970;28;20486;-68
2023/07/14 07:56:11;;;;;;;5.27;2.20;;;45.20;1.00;;;;;;5018309;28;20466;-68
2023/07/14 07:58:38;;;;;;;5.37;2.00;;;45.30;1.00;;;;;;5027858;28;20463;-69
2023/07/14 08:01:06;;;;;;;5.40;1.83;;;45.10;1.00;;;;;;5025957;28;21289;-68
2023/07/14 08:03:33;;;;;;;5.00;2.13;;;44.40;1.00;;;;;;5023446;28;20491;-69
2023/07/14 08:06:00;;;;;;;6.70;2.10;;;45.00;1.00;;;;;;5019793;28;20460;-70
2023/07/14 08:08:28;;;;;;;4.53;1.70;;;46.20;1.00;;;;;;5024169;28;20475;-69
2023/07/14 08:10:55;;;;;;;5.73;1.77;;;46.80;1.00;;;;;;5024555;28;20474;-69
2023/07/14 08:13:24;;;;;;;6.80;1.83;;;47.50;1.00;;;;;;5028240;28;20486;-70
2023/07/14 08:15:52;;;;;;;5.10;1.87;;;49.00;1.00;;;;;;5021032;28;20458;-70
2023/07/14 08:18:18;;;;;;;4.67;1.87;;;49.70;1.00;;;;;;5024748;28;20849;-70
2023/07/14 08:20:45;;;;;;;7.40;2.37;;;49.50;1.00;;;;;;5026676;28;20493;-72
2023/07/14 08:23:15;;;;;;;4.90;2.00;;;48.90;1.00;;;;;;5026996;28;20482;-73
2023/07/14 08:25:41;;;;;;;5.67;2.07;;;48.20;1.00;;;;;;5027831;28;21174;-71
2023/07/14 08:28:10;;;;;;;6.20;1.90;;;47.80;1.00;;;;;;5026248;28;20462;-71
2023/07/14 08:30:38;;;;;;;4.70;1.90;;;47.20;1.00;;;;;;5027844;28;20471;-71
2023/07/14 08:33:05;;;;;;;4.97;1.80;;;47.40;1.00;;;;;;5023253;28;20466;-70
2023/07/14 08:35:32;;;;;;;5.10;2.33;;;47.90;1.00;;;;;;5025609;28;20467;-71
2023/07/14 08:37:59;;;;;;;5.93;1.73;;;47.60;1.00;;;;;;5023682;28;20528;-70
2023/07/14 08:40:37;;;;;;;6.00;2.27;;;47.50;1.00;;;;;;5021279;28;20483;-72
2023/07/14 08:43:21;;;;;;;5.87;1.97;;;48.20;1.00;;;;;;5017763;28;20474;-71
2023/07/14 08:45:55;;;;;;;5.23;1.73;;;49.10;1.00;;;;;;5024276;28;21320;-70
2023/07/14 08:48:37;;;;;;;5.60;2.00;;;49.20;1.00;;;;;;5022743;28;20465;-72
2023/07/14 08:51:16;;;;;;;4.97;1.90;;;47.90;1.00;;;;;;5023610;28;20513;-73
2023/07/14 08:53:48;;;;;;;8.87;2.33;;;47.50;1.00;;;;;;5016678;28;20522;-73
2023/07/14 08:56:18;;;;;;;6.23;2.43;;;47.50;1.00;;;;;;5022943;28;20466;-70
2023/07/14 08:58:47;;;;;;;8.53;2.20;;;47.50;1.00;;;;;;5022607;28;20471;-69
2023/07/14 09:01:28;;;;;;;5.93;1.80;;;47.20;1.00;;;;;;5024560;28;20999;-70
2023/07/14 09:03:59;;;;;;;7.03;1.97;;;46.40;1.00;;;;;;5022415;28;20490;-69
2023/07/14 09:06:30;;;;;;;5.37;1.70;;;46.30;1.00;;;;;;5020390;28;20486;-69
2023/07/14 09:08:57;;;;;;;6.50;1.90;;;46.60;1.00;;;;;;5024576;28;20463;-69
2023/07/14 09:11:45;;;;;;;7.97;2.27;;;46.00;1.00;;;;;;5023904;28;20470;-69
2023/07/14 09:14:23;;;;;;;5.30;2.50;;;46.40;1.00;;;;;;5029426;28;20514;-69
2023/07/14 09:16:59;;;;;;;10.80;2.00;;;46.90;1.00;;;;;;5028918;28;20458;-70
2023/07/14 09:19:39;;;;;;;6.30;2.70;;;46.90;1.00;;;;;;5027833;28;20462;-71
2023/07/14 09:22:13;;;;;;;6.50;1.70;;;46.60;1.00;;;;;;5026072;28;20488;-70
2023/07/14 09:24:52;;;;;;;6.53;1.90;;;46.30;1.00;;;;;;5022236;28;20482;-69
2023/07/14 09:27:23;;;;;;;6.97;2.03;;;45.70;1.00;;;;;;5022968;28;20494;-70
2023/07/14 09:29:52;;;;;;;3.97;1.63;;;44.70;1.00;;;;;;5023719;28;21271;-70
2023/07/14 09:32:32;;;;;;;6.23;2.23;;;44.50;1.00;;;;;;5026668;28;20478;-70
2023/07/14 09:35:01;;;;;;;4.50;2.23;;;44.60;1.00;;;;;;5022926;28;20482;-70
2023/07/14 09:37:33;;;;;;;5.53;1.80;;;44.50;1.00;;;;;;5026126;28;20467;-71
2023/07/14 09:40:09;;;;;;;4.37;1.87;;;43.60;1.00;;;;;;5028860;28;20459;-70
2023/07/14 09:42:40;;;;;;;5.63;1.83;;;42.60;1.00;;;;;;5028728;28;20487;-70
2023/07/14 09:45:14;;;;;;;5.13;1.67;;;41.80;1.00;;;;;;5026351;28;20497;-69
2023/07/14 09:47:44;;;;;;;5.20;2.47;;;41.00;1.00;;;;;;5025261;28;20485;-70
2023/07/14 09:50:14;;;;;;;6.23;1.50;;;40.20;1.00;;;;;;5025402;28;20887;-71
2023/07/14 09:52:50;;;;;;;6.73;2.30;;;39.30;1.00;;;;;;5026244;28;20462;-71
2023/07/14 09:55:19;;;;;;;5.73;2.30;;;38.40;1.00;;;;;;5024644;28;20463;-71
2023/07/14 09:57:50;;;;;;;5.50;2.60;;;37.90;1.00;;;;;;5029691;28;20466;-70
2023/07/14 10:00:21;;;;;;;7.67;2.13;;;37.30;1.00;;;;;;5023525;28;20471;-70
2023/07/14 10:03:06;;;;;;;6.47;2.53;;;37.00;1.00;;;;;;5024123;28;20839;-70
2023/07/14 10:05:47;;;;;;;7.80;2.37;;;36.60;1.00;;;;;;5026591;28;20558;-69
2023/07/14 10:08:33;;;;;;;5.83;2.00;;;36.00;1.00;;;;;;5025357;28;20474;-69
2023/07/14 10:11:10;;;;;;;5.50;2.37;;;35.40;1.00;;;;;;5023504;28;20480;-70
2023/07/14 10:13:37;;;;;;;5.40;2.37;;;34.80;1.00;;;;;;5029270;28;20485;-70
2023/07/14 10:16:08;;;;;;;5.60;2.50;;;34.30;1.00;;;;;;5029820;28;20961;-69
2023/07/14 10:18:49;;;;;;;4.90;1.67;;;33.90;1.00;;;;;;5057653;23;20492;-66
2023/07/14 10:21:23;;;;;;;5.40;2.60;;;33.40;1.00;;;;;;5069702;28;20485;-67
2023/07/14 10:24:01;;;;;;;6.00;2.10;;;33.10;1.00;;;;;;5067069;28;20861;-66
2023/07/14 10:26:30;;;;;;;5.47;2.10;;;33.00;1.00;;;;;;5060404;28;20896;-67
2023/07/14 10:28:57;;;;;;;5.80;2.30;;;33.10;1.00;;;;;;5062437;28;20465;-67
2023/07/14 10:31:30;;;;;;;6.57;1.97;;;33.20;1.00;;;;;;5068178;28;20467;-69
2023/07/14 10:34:14;;;;;;;5.27;2.07;;;33.20;1.00;;;;;;5061714;28;20484;-72
2023/07/14 10:36:41;;;;;;;4.30;2.10;;;33.40;1.00;;;;;;5066922;28;20533;-70
2023/07/14 10:39:16;;;;;;;6.23;2.47;;;33.40;1.00;;;;;;5068403;28;20976;-70
2023/07/14 10:41:45;;;;;;;6.90;2.17;;;33.40;1.00;;;;;;5067309;28;20480;-69
2023/07/14 10:44:18;;;;;;;6.40;2.50;;;33.30;1.00;;;;;;5065046;28;20514;-70
2023/07/14 10:46:49;;;;;;;6.70;2.47;;;33.10;1.00;;;;;;5064471;28;20458;-69
2023/07/14 10:49:25;;;;;;;8.70;2.33;;;32.80;1.00;;;;;;5069278;28;20456;-67
2023/07/14 10:51:56;;;;;;;7.80;2.10;;;32.70;1.00;;;;;;5066222;28;20459;-69
2023/07/14 10:54:36;;;;;;;5.80;2.57;;;32.70;1.00;;;;;;5067970;28;20484;-68
2023/07/14 10:57:09;;;;;;;5.20;2.10;;;32.70;1.00;;;;;;5065182;28;20460;-68
2023/07/14 10:59:46;;;;;;;5.73;2.50;;;32.70;1.00;;;;;;5060312;28;20468;-68
2023/07/14 11:02:20;;;;;;;4.80;2.33;;;32.70;1.00;;;;;;5056732;28;20480;-68
2023/07/14 11:04:54;;;;;;;7.73;2.50;;;32.60;1.00;;;;;;5061879;28;20489;-68
2023/07/14 11:07:28;;;;;;;5.97;2.40;;;32.60;1.00;;;;;;5058542;28;20545;-67
2023/07/14 11:09:55;;;;;;;6.67;2.20;;;32.60;1.00;;;;;;5061194;28;20812;-68
2023/07/14 11:12:30;;;;;;;5.87;2.20;;;32.50;1.00;;;;;;5064512;28;20842;-69
2023/07/14 11:15:10;;;;;;;4.77;2.03;;;32.40;1.00;;;;;;5063744;28;20535;-68
2023/07/14 11:17:44;;;;;;;5.50;2.20;;;32.50;1.00;;;;;;5067504;28;20464;-69
2023/07/14 11:20:19;;;;;;;5.63;2.43;;;32.60;1.00;;;;;;5064832;28;20492;-68
2023/07/14 11:23:03;;;;;;;6.10;2.87;;;32.50;1.00;;;;;;5066285;28;20499;-68
2023/07/14 11:25:38;;;;;;;5.33;2.27;;;32.40;1.00;;;;;;5065134;28;20465;-68
2023/07/14 11:28:17;;;;;;;5.57;2.70;;;32.40;1.00;;;;;;5067574;28;20465;-68
2023/07/14 11:30:49;;;;;;;4.30;2.40;;;32.30;1.00;;;;;;5064363;28;20519;-68
2023/07/14 11:33:27;;;;;;;6.83;3.50;;;31.90;1.00;;;;;;5065267;28;20895;-68
2023/07/14 11:35:59;;;;;;;9.40;2.57;;;31.60;1.00;;;;;;5066916;28;21197;-68
2023/07/14 11:38:35;;;;;;;5.80;2.67;;;31.40;1.00;;;;;;5066852;28;20572;-69
2023/07/14 11:41:03;;;;;;;5.70;2.40;;;31.40;1.00;;;;;;5064002;28;20519;-68
2023/07/14 11:43:31;;;;;;;5.53;2.50;;;31.40;1.00;;;;;;5067627;28;20999;-68
2023/07/14 11:46:02;;;;;;;5.07;2.10;;;31.50;1.00;;;;;;5068826;28;20467;-68
2023/07/14 11:48:36;;;;;;;6.20;2.30;;;31.50;1.00;;;;;;5064082;28;20479;-68
2023/07/14 11:51:09;;;;;;;9.27;2.13;;;31.40;1.00;;;;;;5065984;28;20449;-68
2023/07/14 11:53:40;;;;;;;9.67;4.40;;;31.40;1.00;;;;;;5069329;28;20824;-67
2023/07/14 11:56:26;;;;;;;5.40;2.50;;;31.40;1.00;;;;;;5064773;28;20461;-67
2023/07/14 11:59:06;;;;;;;6.90;2.90;;;31.50;1.00;;;;;;5061694;28;20495;-68
2023/07/14 12:01:43;;;;;;;4.50;2.03;;;31.50;1.00;;;;;;5066886;28;20531;-68
2023/07/14 12:04:28;;;;;;;5.80;2.43;;;31.60;1.00;;;;;;5066850;28;20495;-67
2023/07/14 12:10:00;;;;;;;6.40;2.27;;;31.60;1.00;;;;;;5083076;27;20546;-67
2023/07/14 12:12:27;;;;;;;6.93;2.53;;;31.70;1.00;;;;;;5074562;28;20464;-67
2023/07/14 12:14:54;;;;;;;6.33;2.50;;;31.70;1.00;;;;;;5080302;28;20464;-67
2023/07/14 12:17:54;;;;;;;6.70;2.70;;;31.60;1.00;;;;;;5073654;28;20571;-67
2023/07/14 12:20:37;;;;;;;7.63;2.60;;;31.30;1.00;;;;;;5014670;28;20832;-67
2023/07/14 12:23:11;;;;;;;6.63;2.17;;;31.30;1.00;;;;;;5010708;28;20491;-67
2023/07/14 12:25:49;;;;;;;5.37;2.40;;;31.20;1.00;;;;;;5044932;28;20515;-67
2023/07/14 12:28:25;;;;;;;5.20;2.50;;;31.20;1.00;;;;;;5073030;28;20500;-68
2023/07/14 12:30:53;;;;;;;5.70;3.27;;;31.00;1.00;;;;;;5070895;28;20477;-68
2023/07/14 12:33:21;;;;;;;5.50;2.40;;;30.90;1.00;;;;;;5052990;28;20833;-67
2023/07/14 12:35:51;;;;;;;5.70;2.40;;;30.90;1.00;;;;;;5057754;28;21000;-67
2023/07/14 12:38:20;;;;;;;5.63;2.70;;;30.80;1.00;;;;;;5055494;28;20492;-67
2023/07/14 12:40:51;;;;;;;6.37;3.20;;;30.90;1.00;;;;;;5056590;28;20461;-67
2023/07/14 12:43:27;;;;;;;8.70;3.13;;;30.90;1.00;;;;;;5059554;28;20464;-68
2023/07/14 12:45:55;;;;;;;5.13;2.50;;;31.00;1.00;;;;;;5054763;28;20473;-67
2023/07/14 12:48:27;;;;;;;5.67;2.47;;;30.90;1.00;;;;;;5051233;28;20485;-67
2023/07/14 12:50:55;;;;;;;5.53;2.50;;;30.80;1.00;;;;;;5054550;28;20813;-66
2023/07/14 12:53:22;;;;;;;5.80;2.00;;;30.80;1.00;;;;;;5057509;28;20469;-67
2023/07/14 12:55:50;;;;;;;5.40;2.43;;;30.80;1.00;;;;;;5054169;28;20462;-67
2023/07/14 12:58:22;;;;;;;6.93;2.53;;;30.70;1.00;;;;;;5053327;28;20478;-67
2023/07/14 13:00:55;;;;;;;9.47;2.87;;;30.60;1.00;;;;;;5051266;28;20466;-67
2023/07/14 13:03:22;;;;;;;5.87;2.43;;;30.50;1.00;;;;;;5056912;28;20773;-67
2023/07/14 13:05:51;;;;;;;5.70;2.30;;;30.30;1.00;;;;;;5054736;28;20500;-67
2023/07/14 13:08:21;;;;;;;6.17;2.60;;;30.20;1.00;;;;;;5052978;28;21071;-67
2023/07/14 13:10:50;;;;;;;5.43;2.43;;;30.10;1.00;;;;;;5054978;28;20471;-67